sensor_id;sensor_type;location;lat;lon;timestamp;temperature;humidity
14924;DHT22;7554;43.600;1.480;2023-04-15T00:00:54;10.50;1.00
14924;DHT22;7554;43.600;1.480;2023-04-15T00:03:22;10.40;1.00
14924;DHT22;7554;43.600;1.480;2023-04-15T00:05:49;10.40;1.00
14924;DHT22;7554;43.600;1.480;2023-04-15T00:08:17;10.50;84.90
14924;DHT22;7554;43.600;1.480;2023-04-15T00:10:47;10.40;1.00
14924;DHT22;7554;43.600;1.480;2023-04-15T00:13:15;10.40;99.90
14924;DHT22;7554;43.600;1.480;2023-04-15T00:15:43;10.30;99.90
14924;DHT22;7554;43.600;1.480;2023-04-15T00:18:11;10.30;99.90
14924;DHT22;7554;43.600;1.480;2023-04-15T00:20:39;10.30;99.90
14924;DHT22;7554;43.600;1.480;2023-04-15T00:23:06;10.30;99.90
14924;DHT22;7554;43.600;1.480;2023-04-15T00:25:34;10.30;99.90
14924;DHT22;7554;43.600;1.480;2023-04-15T00:28:01;10.10;99.90
14924;DHT22;7554;43.600;1.480;2023-04-15T00:30:29;10.10;29.90
14924;DHT22;7554;43.600;1.480;2023-04-15T00:32:56;10.20;1.00
14924;DHT22;7554;43.600;1.480;2023-04-15T00:35:25;10.30;1.00
14924;DHT22;7554;43.600;1.480;2023-04-15T00:37:52;10.20;1.00
14924;DHT22;7554;43.600;1.480;2023-04-15T00:40:21;10.30;1.00
14924;DHT22;7554;43.600;1.480;2023-04-15T00:42:50;10.50;1.00
14924;DHT22;7554;43.600;1.480;2023-04-15T00:45:17;10.60;1.00
14924;DHT22;7554;43.600;1.480;2023-04-15T00:47:45;10.60;1.00
14924;DHT22;7554;43.600;1.480;2023-04-15T00:50:12;10.70;1.00
14924;DHT22;7554;43.600;1.480;2023-04-15T00:52:42;10.70;1.00
14924;DHT22;7554;43.600;1.480;2023-04-15T00:55:09;10.70;1.00
14924;DHT22;7554;43.600;1.480;2023-04-15T00:57:38;10.80;1.00
14924;DHT22;7554;43.600;1.480;2023-04-15T01:00:06;10.80;1.00
14924;DHT22;7554;43.600;1.480;2023-04-15T01:02:35;10.80;1.00
14924;DHT22;7554;43.600;1.480;2023-04-15T01:05:03;10.80;1.00
14924;DHT22;7554;43.600;1.480;2023-04-15T01:07:31;10.80;99.90
14924;DHT22;7554;43.600;1.480;2023-04-15T01:09:59;10.80;99.90
14924;DHT22;7554;43.600;1.480;2023-04-15T01:12:28;10.80;99.90
14924;DHT22;7554;43.600;1.480;2023-04-15T01:14:55;10.70;99.90
14924;DHT22;7554;43.600;1.480;2023-04-15T01:17:23;10.70;99.90
14924;DHT22;7554;43.600;1.480;2023-04-15T01:19:51;10.60;99.90
14924;DHT22;7554;43.600;1.480;2023-04-15T01:22:18;10.50;93.20
14924;DHT22;7554;43.600;1.480;2023-04-15T01:24:50;10.40;73.80
14924;DHT22;7554;43.600;1.480;2023-04-15T01:27:22;10.40;61.40
14924;DHT22;7554;43.600;1.480;2023-04-15T01:29:49;10.50;46.20
14924;DHT22;7554;43.600;1.480;2023-04-15T01:32:17;10.40;33.70
14924;DHT22;7554;43.600;1.480;2023-04-15T01:34:45;10.40;27.70
14924;DHT22;7554;43.600;1.480;2023-04-15T01:37:12;10.40;22.10
14924;DHT22;7554;43.600;1.480;2023-04-15T01:39:40;10.30;18.70
14924;DHT22;7554;43.600;1.480;2023-04-15T01:42:07;10.40;16.60
14924;DHT22;7554;43.600;1.480;2023-04-15T01:44:36;10.50;31.40
14924;DHT22;7554;43.600;1.480;2023-04-15T01:47:04;10.60;13.40
14924;DHT22;7554;43.600;1.480;2023-04-15T01:49:31;10.60;1.00
14924;DHT22;7554;43.600;1.480;2023-04-15T01:51:59;10.70;1.00
14924;DHT22;7554;43.600;1.480;2023-04-15T01:54:26;10.80;1.00
14924;DHT22;7554;43.600;1.480;2023-04-15T01:56:53;10.80;1.00
14924;DHT22;7554;43.600;1.480;2023-04-15T01:59:21;10.80;1.00
14924;DHT22;7554;43.600;1.480;2023-04-15T02:01:50;10.80;1.00
14924;DHT22;7554;43.600;1.480;2023-04-15T02:04:18;10.80;1.00
14924;DHT22;7554;43.600;1.480;2023-04-15T02:06:45;10.80;1.00
14924;DHT22;7554;43.600;1.480;2023-04-15T02:09:12;10.70;1.00
14924;DHT22;7554;43.600;1.480;2023-04-15T02:11:40;10.70;1.00
14924;DHT22;7554;43.600;1.480;2023-04-15T02:14:07;10.80;1.00
14924;DHT22;7554;43.600;1.480;2023-04-15T02:16:34;10.70;1.00
14924;DHT22;7554;43.600;1.480;2023-04-15T02:19:03;10.70;1.00
14924;DHT22;7554;43.600;1.480;2023-04-15T02:21:30;10.70;1.00
14924;DHT22;7554;43.600;1.480;2023-04-15T02:23:58;10.70;1.00
14924;DHT22;7554;43.600;1.480;2023-04-15T02:26:25;10.60;1.00
14924;DHT22;7554;43.600;1.480;2023-04-15T02:28:52;10.60;1.00
14924;DHT22;7554;43.600;1.480;2023-04-15T02:31:20;10.50;1.00
14924;DHT22;7554;43.600;1.480;2023-04-15T02:33:47;10.40;1.00
14924;DHT22;7554;43.600;1.480;2023-04-15T02:36:16;10.20;1.00
14924;DHT22;7554;43.600;1.480;2023-04-15T02:38:43;10.20;1.00
14924;DHT22;7554;43.600;1.480;2023-04-15T02:41:11;10.10;1.00
14924;DHT22;7554;43.600;1.480;2023-04-15T02:43:38;10.10;1.00
14924;DHT22;7554;43.600;1.480;2023-04-15T02:46:05;10.10;1.00
14924;DHT22;7554;43.600;1.480;2023-04-15T02:48:33;10.10;1.00
14924;DHT22;7554;43.600;1.480;2023-04-15T02:51:13;10.00;1.00
14924;DHT22;7554;43.600;1.480;2023-04-15T02:53:42;10.10;1.00
14924;DHT22;7554;43.600;1.480;2023-04-15T02:56:10;10.20;1.00
14924;DHT22;7554;43.600;1.480;2023-04-15T02:58:38;10.30;1.00
14924;DHT22;7554;43.600;1.480;2023-04-15T03:01:06;10.40;1.00
14924;DHT22;7554;43.600;1.480;2023-04-15T03:03:33;10.40;1.00
14924;DHT22;7554;43.600;1.480;2023-04-15T03:06:01;10.40;1.00
14924;DHT22;7554;43.600;1.480;2023-04-15T03:08:28;10.50;1.00
14924;DHT22;7554;43.600;1.480;2023-04-15T03:10:58;10.40;1.00
14924;DHT22;7554;43.600;1.480;2023-04-15T03:13:27;10.50;1.00
14924;DHT22;7554;43.600;1.480;2023-04-15T03:15:54;10.50;1.00
14924;DHT22;7554;43.600;1.480;2023-04-15T03:18:22;10.50;1.00
14924;DHT22;7554;43.600;1.480;2023-04-15T03:20:49;10.50;1.00
14924;DHT22;7554;43.600;1.480;2023-04-15T03:23:16;10.50;1.00
14924;DHT22;7554;43.600;1.480;2023-04-15T03:25:44;10.50;1.00
14924;DHT22;7554;43.600;1.480;2023-04-15T03:28:13;10.50;1.00
14924;DHT22;7554;43.600;1.480;2023-04-15T03:30:40;10.50;1.00
14924;DHT22;7554;43.600;1.480;2023-04-15T03:33:07;10.60;1.00
14924;DHT22;7554;43.600;1.480;2023-04-15T03:35:35;10.60;1.00
14924;DHT22;7554;43.600;1.480;2023-04-15T03:38:02;10.60;1.00
14924;DHT22;7554;43.600;1.480;2023-04-15T03:40:29;10.50;1.00
14924;DHT22;7554;43.600;1.480;2023-04-15T03:42:57;10.60;1.00
14924;DHT22;7554;43.600;1.480;2023-04-15T03:45:26;10.50;1.00
14924;DHT22;7554;43.600;1.480;2023-04-15T03:47:53;10.50;1.00
14924;DHT22;7554;43.600;1.480;2023-04-15T03:50:21;10.50;1.00
14924;DHT22;7554;43.600;1.480;2023-04-15T03:52:48;10.50;1.00
14924;DHT22;7554;43.600;1.480;2023-04-15T03:55:15;10.60;1.00
14924;DHT22;7554;43.600;1.480;2023-04-15T03:57:43;10.60;1.00
14924;DHT22;7554;43.600;1.480;2023-04-15T04:00:10;10.60;1.00
14924;DHT22;7554;43.600;1.480;2023-04-15T04:02:39;10.70;1.00
14924;DHT22;7554;43.600;1.480;2023-04-15T04:05:07;10.70;1.00
14924;DHT22;7554;43.600;1.480;2023-04-15T04:07:35;10.70;1.00
14924;DHT22;7554;43.600;1.480;2023-04-15T04:10:02;10.70;1.00
14924;DHT22;7554;43.600;1.480;2023-04-15T04:12:30;10.70;1.00
14924;DHT22;7554;43.600;1.480;2023-04-15T04:14:57;10.70;1.00
14924;DHT22;7554;43.600;1.480;2023-04-15T04:17:24;10.70;1.00
14924;DHT22;7554;43.600;1.480;2023-04-15T04:19:53;10.70;1.00
14924;DHT22;7554;43.600;1.480;2023-04-15T04:22:22;10.70;1.00
14924;DHT22;7554;43.600;1.480;2023-04-15T04:24:50;10.60;1.00
14924;DHT22;7554;43.600;1.480;2023-04-15T04:27:17;10.60;1.00
14924;DHT22;7554;43.600;1.480;2023-04-15T04:29:44;10.60;1.00
14924;DHT22;7554;43.600;1.480;2023-04-15T04:32:14;10.60;1.00
14924;DHT22;7554;43.600;1.480;2023-04-15T04:34:42;10.60;1.00
14924;DHT22;7554;43.600;1.480;2023-04-15T04:37:10;10.50;1.00
14924;DHT22;7554;43.600;1.480;2023-04-15T04:39:38;10.50;1.00
14924;DHT22;7554;43.600;1.480;2023-04-15T04:42:05;10.50;1.00
14924;DHT22;7554;43.600;1.480;2023-04-15T04:44:32;10.50;1.00
14924;DHT22;7554;43.600;1.480;2023-04-15T04:47:00;10.60;1.00
14924;DHT22;7554;43.600;1.480;2023-04-15T04:49:27;10.60;1.00
14924;DHT22;7554;43.600;1.480;2023-04-15T04:51:54;10.60;1.00
14924;DHT22;7554;43.600;1.480;2023-04-15T04:54:23;10.60;1.00
14924;DHT22;7554;43.600;1.480;2023-04-15T04:56:52;10.60;1.00
14924;DHT22;7554;43.600;1.480;2023-04-15T04:59:19;10.60;1.00
14924;DHT22;7554;43.600;1.480;2023-04-15T05:01:47;10.50;1.00
14924;DHT22;7554;43.600;1.480;2023-04-15T05:04:14;10.50;1.00
14924;DHT22;7554;43.600;1.480;2023-04-15T05:06:42;10.50;1.00
14924;DHT22;7554;43.600;1.480;2023-04-15T05:09:09;10.50;1.00
14924;DHT22;7554;43.600;1.480;2023-04-15T05:11:37;10.50;1.00
14924;DHT22;7554;43.600;1.480;2023-04-15T05:14:05;10.50;1.00
14924;DHT22;7554;43.600;1.480;2023-04-15T05:16:32;10.50;1.00
14924;DHT22;7554;43.600;1.480;2023-04-15T05:18:59;10.60;1.00
14924;DHT22;7554;43.600;1.480;2023-04-15T05:21:27;10.60;1.00
14924;DHT22;7554;43.600;1.480;2023-04-15T05:23:54;10.60;1.00
14924;DHT22;7554;43.600;1.480;2023-04-15T05:26:21;10.70;1.00
14924;DHT22;7554;43.600;1.480;2023-04-15T05:28:50;10.60;1.00
14924;DHT22;7554;43.600;1.480;2023-04-15T05:31:18;10.60;1.00
14924;DHT22;7554;43.600;1.480;2023-04-15T05:33:46;10.50;1.00
14924;DHT22;7554;43.600;1.480;2023-04-15T05:36:13;10.50;1.00
14924;DHT22;7554;43.600;1.480;2023-04-15T05:38:40;10.60;1.00
14924;DHT22;7554;43.600;1.480;2023-04-15T05:41:08;10.70;1.00
14924;DHT22;7554;43.600;1.480;2023-04-15T05:43:35;10.80;1.00
14924;DHT22;7554;43.600;1.480;2023-04-15T05:46:04;10.70;1.00
14924;DHT22;7554;43.600;1.480;2023-04-15T05:48:31;10.70;1.00
14924;DHT22;7554;43.600;1.480;2023-04-15T05:50:59;10.70;1.00
14924;DHT22;7554;43.600;1.480;2023-04-15T05:53:26;10.70;1.00
14924;DHT22;7554;43.600;1.480;2023-04-15T05:55:54;10.70;1.00
14924;DHT22;7554;43.600;1.480;2023-04-15T05:58:21;10.70;1.00
14924;DHT22;7554;43.600;1.480;2023-04-15T06:00:48;10.70;1.00
14924;DHT22;7554;43.600;1.480;2023-04-15T06:03:17;10.60;1.00
14924;DHT22;7554;43.600;1.480;2023-04-15T06:05:45;10.60;1.00
14924;DHT22;7554;43.600;1.480;2023-04-15T06:08:12;10.70;1.00
14924;DHT22;7554;43.600;1.480;2023-04-15T06:10:39;10.80;1.00
14924;DHT22;7554;43.600;1.480;2023-04-15T06:13:07;10.70;1.00
14924;DHT22;7554;43.600;1.480;2023-04-15T06:15:34;10.80;1.00
14924;DHT22;7554;43.600;1.480;2023-04-15T06:18:01;10.70;1.00
14924;DHT22;7554;43.600;1.480;2023-04-15T06:20:30;10.80;1.00
14924;DHT22;7554;43.600;1.480;2023-04-15T06:22:58;10.80;1.00
14924;DHT22;7554;43.600;1.480;2023-04-15T06:25:25;10.80;1.00
14924;DHT22;7554;43.600;1.480;2023-04-15T06:27:53;10.80;1.00
14924;DHT22;7554;43.600;1.480;2023-04-15T06:30:20;10.80;1.00
14924;DHT22;7554;43.600;1.480;2023-04-15T06:32:47;10.80;1.00
14924;DHT22;7554;43.600;1.480;2023-04-15T06:35:15;10.80;1.00
14924;DHT22;7554;43.600;1.480;2023-04-15T06:37:44;10.50;1.00
14924;DHT22;7554;43.600;1.480;2023-04-15T06:40:11;10.30;99.90
14924;DHT22;7554;43.600;1.480;2023-04-15T06:42:39;10.10;1.00
14924;DHT22;7554;43.600;1.480;2023-04-15T06:45:07;10.00;1.00
14924;DHT22;7554;43.600;1.480;2023-04-15T06:47:35;10.00;99.90
14924;DHT22;7554;43.600;1.480;2023-04-15T06:50:02;10.60;75.90
14924;DHT22;7554;43.600;1.480;2023-04-15T06:52:30;10.60;99.90
14924;DHT22;7554;43.600;1.480;2023-04-15T06:54:59;10.70;99.90
14924;DHT22;7554;43.600;1.480;2023-04-15T06:57:27;10.80;99.90
14924;DHT22;7554;43.600;1.480;2023-04-15T06:59:54;10.80;99.90
14924;DHT22;7554;43.600;1.480;2023-04-15T07:02:22;10.80;99.90
14924;DHT22;7554;43.600;1.480;2023-04-15T07:04:49;10.90;99.90
14924;DHT22;7554;43.600;1.480;2023-04-15T07:07:17;10.90;99.90
14924;DHT22;7554;43.600;1.480;2023-04-15T07:09:44;10.80;99.90
14924;DHT22;7554;43.600;1.480;2023-04-15T07:12:13;10.90;99.90
14924;DHT22;7554;43.600;1.480;2023-04-15T07:14:41;11.10;99.90
14924;DHT22;7554;43.600;1.480;2023-04-15T07:17:08;11.30;99.90
14924;DHT22;7554;43.600;1.480;2023-04-15T07:19:37;11.00;99.90
14924;DHT22;7554;43.600;1.480;2023-04-15T07:22:05;10.90;99.90
14924;DHT22;7554;43.600;1.480;2023-04-15T07:24:32;11.00;99.90
14924;DHT22;7554;43.600;1.480;2023-04-15T07:27:00;11.30;99.90
14924;DHT22;7554;43.600;1.480;2023-04-15T07:29:30;11.30;99.90
14924;DHT22;7554;43.600;1.480;2023-04-15T07:31:57;11.30;99.90
14924;DHT22;7554;43.600;1.480;2023-04-15T07:34:25;11.60;99.90
14924;DHT22;7554;43.600;1.480;2023-04-15T07:36:52;11.50;99.90
14924;DHT22;7554;43.600;1.480;2023-04-15T07:39:19;11.20;99.90
14924;DHT22;7554;43.600;1.480;2023-04-15T07:41:47;11.40;99.90
14924;DHT22;7554;43.600;1.480;2023-04-15T07:44:15;11.30;99.90
14924;DHT22;7554;43.600;1.480;2023-04-15T07:46:43;11.20;99.90
14924;DHT22;7554;43.600;1.480;2023-04-15T07:49:11;11.40;99.90
14924;DHT22;7554;43.600;1.480;2023-04-15T07:51:39;11.40;99.90
14924;DHT22;7554;43.600;1.480;2023-04-15T07:54:06;11.50;99.90
14924;DHT22;7554;43.600;1.480;2023-04-15T07:56:33;11.40;99.90
14924;DHT22;7554;43.600;1.480;2023-04-15T07:59:01;11.40;99.90
14924;DHT22;7554;43.600;1.480;2023-04-15T08:01:29;11.30;99.90
14924;DHT22;7554;43.600;1.480;2023-04-15T08:03:59;11.20;99.90
14924;DHT22;7554;43.600;1.480;2023-04-15T08:06:27;11.20;99.90
14924;DHT22;7554;43.600;1.480;2023-04-15T08:08:54;11.50;99.90
14924;DHT22;7554;43.600;1.480;2023-04-15T08:11:22;11.70;99.90
14924;DHT22;7554;43.600;1.480;2023-04-15T08:13:49;11.70;99.90
14924;DHT22;7554;43.600;1.480;2023-04-15T08:16:19;12.00;99.90
14924;DHT22;7554;43.600;1.480;2023-04-15T08:18:48;11.90;99.90
14924;DHT22;7554;43.600;1.480;2023-04-15T08:21:18;12.60;99.90
14924;DHT22;7554;43.600;1.480;2023-04-15T08:23:47;12.20;99.90
14924;DHT22;7554;43.600;1.480;2023-04-15T08:26:15;12.20;27.10
14924;DHT22;7554;43.600;1.480;2023-04-15T08:28:43;12.10;1.00
14924;DHT22;7554;43.600;1.480;2023-04-15T08:31:11;11.90;1.00
14924;DHT22;7554;43.600;1.480;2023-04-15T08:33:39;12.30;1.00
14924;DHT22;7554;43.600;1.480;2023-04-15T08:36:06;12.70;1.00
14924;DHT22;7554;43.600;1.480;2023-04-15T08:38:35;12.90;1.00
14924;DHT22;7554;43.600;1.480;2023-04-15T08:41:05;13.20;1.00
14924;DHT22;7554;43.600;1.480;2023-04-15T08:43:34;12.60;1.00
14924;DHT22;7554;43.600;1.480;2023-04-15T08:46:08;12.50;1.00
14924;DHT22;7554;43.600;1.480;2023-04-15T08:48:36;12.20;1.00
14924;DHT22;7554;43.600;1.480;2023-04-15T08:51:05;12.40;99.90
14924;DHT22;7554;43.600;1.480;2023-04-15T08:53:36;12.40;99.90
14924;DHT22;7554;43.600;1.480;2023-04-15T08:56:07;12.80;1.00
14924;DHT22;7554;43.600;1.480;2023-04-15T08:58:35;13.00;99.90
14924;DHT22;7554;43.600;1.480;2023-04-15T09:01:03;12.90;1.00
14924;DHT22;7554;43.600;1.480;2023-04-15T09:03:31;13.20;99.90
14924;DHT22;7554;43.600;1.480;2023-04-15T09:05:59;13.30;1.00
14924;DHT22;7554;43.600;1.480;2023-04-15T09:08:26;13.30;1.00
14924;DHT22;7554;43.600;1.480;2023-04-15T09:10:55;13.10;1.00
14924;DHT22;7554;43.600;1.480;2023-04-15T09:13:23;13.00;1.00
14924;DHT22;7554;43.600;1.480;2023-04-15T09:15:50;12.80;1.00
14924;DHT22;7554;43.600;1.480;2023-04-15T09:18:27;13.20;99.90
14924;DHT22;7554;43.600;1.480;2023-04-15T09:20:55;13.80;99.90
14924;DHT22;7554;43.600;1.480;2023-04-15T09:23:30;13.80;1.00
14924;DHT22;7554;43.600;1.480;2023-04-15T09:26:00;14.30;1.00
14924;DHT22;7554;43.600;1.480;2023-04-15T09:28:27;14.90;1.00
14924;DHT22;7554;43.600;1.480;2023-04-15T09:30:56;14.80;1.00
14924;DHT22;7554;43.600;1.480;2023-04-15T09:33:23;14.60;1.00
14924;DHT22;7554;43.600;1.480;2023-04-15T09:35:59;15.00;1.00
14924;DHT22;7554;43.600;1.480;2023-04-15T09:38:27;15.30;1.00
14924;DHT22;7554;43.600;1.480;2023-04-15T09:40:55;15.20;1.00
14924;DHT22;7554;43.600;1.480;2023-04-15T09:43:36;14.60;1.00
14924;DHT22;7554;43.600;1.480;2023-04-15T09:46:04;14.60;1.00
14924;DHT22;7554;43.600;1.480;2023-04-15T09:48:32;14.90;1.00
14924;DHT22;7554;43.600;1.480;2023-04-15T09:50:59;15.10;1.00
14924;DHT22;7554;43.600;1.480;2023-04-15T09:53:27;15.30;1.00
14924;DHT22;7554;43.600;1.480;2023-04-15T09:55:56;15.10;1.00
14924;DHT22;7554;43.600;1.480;2023-04-15T09:58:28;15.20;1.00
14924;DHT22;7554;43.600;1.480;2023-04-15T10:00:56;15.40;1.00
14924;DHT22;7554;43.600;1.480;2023-04-15T10:03:25;15.10;1.00
14924;DHT22;7554;43.600;1.480;2023-04-15T10:05:54;15.10;1.00
14924;DHT22;7554;43.600;1.480;2023-04-15T10:08:23;15.00;1.00
14924;DHT22;7554;43.600;1.480;2023-04-15T10:10:51;14.80;1.00
14924;DHT22;7554;43.600;1.480;2023-04-15T10:13:21;15.00;1.00
14924;DHT22;7554;43.600;1.480;2023-04-15T10:15:57;15.20;1.00
14924;DHT22;7554;43.600;1.480;2023-04-15T10:18:26;15.80;1.00
14924;DHT22;7554;43.600;1.480;2023-04-15T10:20:53;16.10;1.00
14924;DHT22;7554;43.600;1.480;2023-04-15T10:23:22;16.20;1.00
14924;DHT22;7554;43.600;1.480;2023-04-15T10:25:52;16.00;1.00
14924;DHT22;7554;43.600;1.480;2023-04-15T10:28:21;15.80;1.00
14924;DHT22;7554;43.600;1.480;2023-04-15T10:30:48;15.30;1.00
14924;DHT22;7554;43.600;1.480;2023-04-15T10:33:20;15.10;1.00
14924;DHT22;7554;43.600;1.480;2023-04-15T10:35:49;15.00;1.00
14924;DHT22;7554;43.600;1.480;2023-04-15T10:38:36;15.10;1.00
14924;DHT22;7554;43.600;1.480;2023-04-15T10:41:14;14.70;1.00
14924;DHT22;7554;43.600;1.480;2023-04-15T10:43:47;15.00;1.00
14924;DHT22;7554;43.600;1.480;2023-04-15T10:46:18;15.30;1.00
14924;DHT22;7554;43.600;1.480;2023-04-15T10:48:49;15.40;1.00
14924;DHT22;7554;43.600;1.480;2023-04-15T10:51:26;15.10;1.00
14924;DHT22;7554;43.600;1.480;2023-04-15T10:53:56;15.10;1.00
14924;DHT22;7554;43.600;1.480;2023-04-15T10:56:24;15.30;1.00
14924;DHT22;7554;43.600;1.480;2023-04-15T10:58:52;15.40;1.00
14924;DHT22;7554;43.600;1.480;2023-04-15T11:01:19;15.60;1.00
14924;DHT22;7554;43.600;1.480;2023-04-15T11:03:50;15.60;1.00
14924;DHT22;7554;43.600;1.480;2023-04-15T11:06:17;15.30;1.00
14924;DHT22;7554;43.600;1.480;2023-04-15T11:08:55;15.20;1.00
14924;DHT22;7554;43.600;1.480;2023-04-15T11:12:04;15.30;1.00
14924;DHT22;7554;43.600;1.480;2023-04-15T11:14:33;15.30;1.00
14924;DHT22;7554;43.600;1.480;2023-04-15T11:17:01;15.60;1.00
14924;DHT22;7554;43.600;1.480;2023-04-15T11:19:37;15.90;1.00
14924;DHT22;7554;43.600;1.480;2023-04-15T11:22:08;16.30;1.00
14924;DHT22;7554;43.600;1.480;2023-04-15T11:24:35;16.30;1.00
14924;DHT22;7554;43.600;1.480;2023-04-15T11:27:03;16.20;1.00
14924;DHT22;7554;43.600;1.480;2023-04-15T11:29:30;16.20;1.00
14924;DHT22;7554;43.600;1.480;2023-04-15T11:32:04;16.00;1.00
14924;DHT22;7554;43.600;1.480;2023-04-15T11:34:33;15.80;1.00
14924;DHT22;7554;43.600;1.480;2023-04-15T11:37:05;15.60;1.00
14924;DHT22;7554;43.600;1.480;2023-04-15T11:39:32;15.80;1.00
14924;DHT22;7554;43.600;1.480;2023-04-15T11:42:00;15.90;1.00
14924;DHT22;7554;43.600;1.480;2023-04-15T11:44:27;15.70;1.00
14924;DHT22;7554;43.600;1.480;2023-04-15T11:46:54;15.50;1.00
14924;DHT22;7554;43.600;1.480;2023-04-15T11:49:26;15.20;1.00
14924;DHT22;7554;43.600;1.480;2023-04-15T11:51:54;15.10;1.00
14924;DHT22;7554;43.600;1.480;2023-04-15T11:54:22;15.00;1.00
14924;DHT22;7554;43.600;1.480;2023-04-15T11:56:50;15.60;1.00
14924;DHT22;7554;43.600;1.480;2023-04-15T11:59:19;15.70;1.00
14924;DHT22;7554;43.600;1.480;2023-04-15T12:01:46;15.90;1.00
14924;DHT22;7554;43.600;1.480;2023-04-15T12:04:16;15.90;1.00
14924;DHT22;7554;43.600;1.480;2023-04-15T12:06:45;16.10;1.00
14924;DHT22;7554;43.600;1.480;2023-04-15T12:09:13;16.40;1.00
14924;DHT22;7554;43.600;1.480;2023-04-15T12:11:44;16.40;1.00
14924;DHT22;7554;43.600;1.480;2023-04-15T12:14:23;16.50;1.00
14924;DHT22;7554;43.600;1.480;2023-04-15T12:16:52;16.40;1.00
14924;DHT22;7554;43.600;1.480;2023-04-15T12:19:23;16.40;1.00
14924;DHT22;7554;43.600;1.480;2023-04-15T12:21:52;16.50;1.00
14924;DHT22;7554;43.600;1.480;2023-04-15T12:24:20;16.80;1.00
14924;DHT22;7554;43.600;1.480;2023-04-15T12:26:51;16.80;1.00
14924;DHT22;7554;43.600;1.480;2023-04-15T12:29:19;16.20;1.00
14924;DHT22;7554;43.600;1.480;2023-04-15T12:31:48;15.90;1.00
14924;DHT22;7554;43.600;1.480;2023-04-15T12:34:17;15.60;1.00
14924;DHT22;7554;43.600;1.480;2023-04-15T12:36:45;15.90;1.00
14924;DHT22;7554;43.600;1.480;2023-04-15T12:39:12;15.90;1.00
14924;DHT22;7554;43.600;1.480;2023-04-15T12:41:39;15.70;1.00
14924;DHT22;7554;43.600;1.480;2023-04-15T12:44:08;15.80;1.00
14924;DHT22;7554;43.600;1.480;2023-04-15T12:46:35;15.70;1.00
14924;DHT22;7554;43.600;1.480;2023-04-15T12:49:03;16.20;1.00
14924;DHT22;7554;43.600;1.480;2023-04-15T12:51:31;16.30;1.00
14924;DHT22;7554;43.600;1.480;2023-04-15T12:53:58;16.30;1.00
14924;DHT22;7554;43.600;1.480;2023-04-15T12:56:25;16.20;1.00
14924;DHT22;7554;43.600;1.480;2023-04-15T12:58:53;16.40;1.00
14924;DHT22;7554;43.600;1.480;2023-04-15T13:01:21;16.70;1.00
14924;DHT22;7554;43.600;1.480;2023-04-15T13:03:49;16.60;1.00
14924;DHT22;7554;43.600;1.480;2023-04-15T13:06:16;16.30;1.00
14924;DHT22;7554;43.600;1.480;2023-04-15T13:08:43;16.30;1.00
14924;DHT22;7554;43.600;1.480;2023-04-15T13:11:11;16.40;1.00
14924;DHT22;7554;43.600;1.480;2023-04-15T13:13:38;16.40;1.00
14924;DHT22;7554;43.600;1.480;2023-04-15T13:16:06;16.20;1.00
14924;DHT22;7554;43.600;1.480;2023-04-15T13:18:34;16.20;1.00
14924;DHT22;7554;43.600;1.480;2023-04-15T13:21:02;16.20;1.00
14924;DHT22;7554;43.600;1.480;2023-04-15T13:23:32;16.10;1.00
14924;DHT22;7554;43.600;1.480;2023-04-15T13:25:59;16.00;1.00
14924;DHT22;7554;43.600;1.480;2023-04-15T13:28:26;15.90;1.00
14924;DHT22;7554;43.600;1.480;2023-04-15T13:30:54;16.00;1.00
14924;DHT22;7554;43.600;1.480;2023-04-15T13:33:21;15.90;1.00
14924;DHT22;7554;43.600;1.480;2023-04-15T13:35:50;16.00;1.00
14924;DHT22;7554;43.600;1.480;2023-04-15T13:38:17;16.00;1.00
14924;DHT22;7554;43.600;1.480;2023-04-15T13:40:45;16.20;1.00
14924;DHT22;7554;43.600;1.480;2023-04-15T13:43:12;16.60;1.00
14924;DHT22;7554;43.600;1.480;2023-04-15T13:45:39;16.50;1.00
14924;DHT22;7554;43.600;1.480;2023-04-15T13:48:07;16.20;1.00
14924;DHT22;7554;43.600;1.480;2023-04-15T13:50:34;16.20;1.00
14924;DHT22;7554;43.600;1.480;2023-04-15T13:53:03;16.10;1.00
14924;DHT22;7554;43.600;1.480;2023-04-15T13:55:30;15.90;1.00
14924;DHT22;7554;43.600;1.480;2023-04-15T13:57:59;16.00;1.00
14924;DHT22;7554;43.600;1.480;2023-04-15T14:00:27;16.40;1.00
14924;DHT22;7554;43.600;1.480;2023-04-15T14:02:54;16.40;1.00
14924;DHT22;7554;43.600;1.480;2023-04-15T14:05:21;16.60;1.00
14924;DHT22;7554;43.600;1.480;2023-04-15T14:07:49;16.30;1.00
14924;DHT22;7554;43.600;1.480;2023-04-15T14:10:17;16.30;1.00
14924;DHT22;7554;43.600;1.480;2023-04-15T14:12:45;16.00;1.00
14924;DHT22;7554;43.600;1.480;2023-04-15T14:15:12;16.10;1.00
14924;DHT22;7554;43.600;1.480;2023-04-15T14:17:40;16.10;1.00
14924;DHT22;7554;43.600;1.480;2023-04-15T14:20:08;16.10;1.00
14924;DHT22;7554;43.600;1.480;2023-04-15T14:22:35;15.70;1.00
14924;DHT22;7554;43.600;1.480;2023-04-15T14:25:03;15.60;1.00
14924;DHT22;7554;43.600;1.480;2023-04-15T14:27:32;15.80;1.00
14924;DHT22;7554;43.600;1.480;2023-04-15T14:30:00;15.90;1.00
14924;DHT22;7554;43.600;1.480;2023-04-15T14:32:27;15.60;1.00
14924;DHT22;7554;43.600;1.480;2023-04-15T14:34:55;15.40;1.00
14924;DHT22;7554;43.600;1.480;2023-04-15T14:37:23;15.30;1.00
14924;DHT22;7554;43.600;1.480;2023-04-15T14:39:51;15.30;1.00
14924;DHT22;7554;43.600;1.480;2023-04-15T14:42:18;15.40;1.00
14924;DHT22;7554;43.600;1.480;2023-04-15T14:44:47;15.50;1.00
14924;DHT22;7554;43.600;1.480;2023-04-15T14:47:14;15.50;1.00
14924;DHT22;7554;43.600;1.480;2023-04-15T14:49:42;15.50;1.00
14924;DHT22;7554;43.600;1.480;2023-04-15T14:52:09;15.40;1.00
14924;DHT22;7554;43.600;1.480;2023-04-15T14:54:36;15.60;1.00
14924;DHT22;7554;43.600;1.480;2023-04-15T14:57:04;15.70;1.00
14924;DHT22;7554;43.600;1.480;2023-04-15T14:59:32;15.70;1.00
14924;DHT22;7554;43.600;1.480;2023-04-15T15:02:01;15.70;1.00
14924;DHT22;7554;43.600;1.480;2023-04-15T15:04:28;15.60;1.00
14924;DHT22;7554;43.600;1.480;2023-04-15T15:06:57;15.70;1.00
14924;DHT22;7554;43.600;1.480;2023-04-15T15:09:26;15.60;1.00
14924;DHT22;7554;43.600;1.480;2023-04-15T15:11:53;15.70;1.00
14924;DHT22;7554;43.600;1.480;2023-04-15T15:14:21;15.60;1.00
14924;DHT22;7554;43.600;1.480;2023-04-15T15:16:49;15.40;1.00
14924;DHT22;7554;43.600;1.480;2023-04-15T15:19:18;15.50;1.00
14924;DHT22;7554;43.600;1.480;2023-04-15T15:21:45;15.40;1.00
14924;DHT22;7554;43.600;1.480;2023-04-15T15:24:13;15.40;1.00
14924;DHT22;7554;43.600;1.480;2023-04-15T15:26:40;15.50;1.00
14924;DHT22;7554;43.600;1.480;2023-04-15T15:29:07;16.00;1.00
14924;DHT22;7554;43.600;1.480;2023-04-15T15:31:35;16.10;1.00
14924;DHT22;7554;43.600;1.480;2023-04-15T15:34:02;16.00;1.00
14924;DHT22;7554;43.600;1.480;2023-04-15T15:36:31;16.10;1.00
14924;DHT22;7554;43.600;1.480;2023-04-15T15:38:59;15.80;1.00
14924;DHT22;7554;43.600;1.480;2023-04-15T15:41:26;15.60;1.00
14924;DHT22;7554;43.600;1.480;2023-04-15T15:43:53;15.60;1.00
14924;DHT22;7554;43.600;1.480;2023-04-15T15:46:21;15.90;1.00
14924;DHT22;7554;43.600;1.480;2023-04-15T15:48:49;16.00;1.00
14924;DHT22;7554;43.600;1.480;2023-04-15T15:51:16;15.70;1.00
14924;DHT22;7554;43.600;1.480;2023-04-15T15:53:46;15.70;1.00
14924;DHT22;7554;43.600;1.480;2023-04-15T15:56:13;15.70;1.00
14924;DHT22;7554;43.600;1.480;2023-04-15T15:58:41;15.80;1.00
14924;DHT22;7554;43.600;1.480;2023-04-15T16:01:10;16.00;1.00
14924;DHT22;7554;43.600;1.480;2023-04-15T16:03:37;16.00;1.00
14924;DHT22;7554;43.600;1.480;2023-04-15T16:06:05;16.20;1.00